sensor_id;sensor_type;location;lat;lon;timestamp;P1;durP1;ratioP1;P2;durP2;ratioP2
10633;SDS011;5365;51.640;8.106;2023-04-29T00:00:03;219.93;;;70.90;;
10633;SDS011;5365;51.640;8.106;2023-04-29T00:03:05;229.90;;;76.30;;
10633;SDS011;5365;51.640;8.106;2023-04-29T00:06:06;227.37;;;75.57;;
10633;SDS011;5365;51.640;8.106;2023-04-29T00:09:06;226.53;;;75.60;;
10633;SDS011;5365;51.640;8.106;2023-04-29T00:12:06;224.77;;;72.33;;
10633;SDS011;5365;51.640;8.106;2023-04-29T00:15:06;224.23;;;71.90;;
10633;SDS011;5365;51.640;8.106;2023-04-29T00:18:08;227.03;;;75.47;;
10633;SDS011;5365;51.640;8.106;2023-04-29T00:21:08;226.87;;;73.57;;
10633;SDS011;5365;51.640;8.106;2023-04-29T00:24:08;230.97;;;80.63;;
10633;SDS011;5365;51.640;8.106;2023-04-29T00:27:08;229.10;;;77.13;;
10633;SDS011;5365;51.640;8.106;2023-04-29T00:30:10;228.93;;;75.37;;
10633;SDS011;5365;51.640;8.106;2023-04-29T00:33:11;228.00;;;75.97;;
10633;SDS011;5365;51.640;8.106;2023-04-29T00:36:11;226.00;;;75.43;;
10633;SDS011;5365;51.640;8.106;2023-04-29T00:39:11;233.33;;;78.23;;
10633;SDS011;5365;51.640;8.106;2023-04-29T00:42:12;228.67;;;75.27;;
10633;SDS011;5365;51.640;8.106;2023-04-29T00:45:12;234.50;;;78.10;;
10633;SDS011;5365;51.640;8.106;2023-04-29T00:48:13;227.07;;;76.87;;
10633;SDS011;5365;51.640;8.106;2023-04-29T00:51:16;233.93;;;80.40;;
10633;SDS011;5365;51.640;8.106;2023-04-29T00:54:17;229.17;;;78.93;;
10633;SDS011;5365;51.640;8.106;2023-04-29T00:57:18;228.23;;;77.27;;
10633;SDS011;5365;51.640;8.106;2023-04-29T01:00:18;231.70;;;77.63;;
10633;SDS011;5365;51.640;8.106;2023-04-29T01:03:19;227.50;;;79.67;;
10633;SDS011;5365;51.640;8.106;2023-04-29T01:06:39;226.13;;;74.20;;
10633;SDS011;5365;51.640;8.106;2023-04-29T01:18:58;241.93;;;81.87;;
10633;SDS011;5365;51.640;8.106;2023-04-29T01:22:01;243.30;;;84.27;;
10633;SDS011;5365;51.640;8.106;2023-04-29T01:25:01;241.33;;;88.37;;
10633;SDS011;5365;51.640;8.106;2023-04-29T01:31:07;243.27;;;87.73;;
10633;SDS011;5365;51.640;8.106;2023-04-29T01:34:22;247.10;;;87.23;;
10633;SDS011;5365;51.640;8.106;2023-04-29T01:38:03;229.17;;;73.10;;
10633;SDS011;5365;51.640;8.106;2023-04-29T01:44:15;232.27;;;75.63;;
10633;SDS011;5365;51.640;8.106;2023-04-29T01:47:17;238.03;;;75.83;;
10633;SDS011;5365;51.640;8.106;2023-04-29T01:50:18;237.47;;;79.43;;
10633;SDS011;5365;51.640;8.106;2023-04-29T01:53:18;235.87;;;75.10;;
10633;SDS011;5365;51.640;8.106;2023-04-29T01:56:18;245.17;;;80.57;;
10633;SDS011;5365;51.640;8.106;2023-04-29T01:59:18;240.73;;;79.17;;
10633;SDS011;5365;51.640;8.106;2023-04-29T02:02:18;240.57;;;77.03;;
10633;SDS011;5365;51.640;8.106;2023-04-29T02:05:22;231.57;;;74.50;;
10633;SDS011;5365;51.640;8.106;2023-04-29T02:08:22;235.67;;;78.17;;
10633;SDS011;5365;51.640;8.106;2023-04-29T02:11:22;231.77;;;75.13;;
10633;SDS011;5365;51.640;8.106;2023-04-29T02:14:22;233.47;;;75.73;;
10633;SDS011;5365;51.640;8.106;2023-04-29T02:17:23;231.43;;;74.80;;
10633;SDS011;5365;51.640;8.106;2023-04-29T02:20:23;243.50;;;81.07;;
10633;SDS011;5365;51.640;8.106;2023-04-29T02:23:23;234.07;;;74.33;;
10633;SDS011;5365;51.640;8.106;2023-04-29T02:26:23;253.90;;;81.43;;
10633;SDS011;5365;51.640;8.106;2023-04-29T02:29:23;251.53;;;81.30;;
10633;SDS011;5365;51.640;8.106;2023-04-29T02:32:25;252.40;;;80.20;;
10633;SDS011;5365;51.640;8.106;2023-04-29T02:35:25;260.53;;;78.27;;
10633;SDS011;5365;51.640;8.106;2023-04-29T02:38:26;262.53;;;79.93;;
10633;SDS011;5365;51.640;8.106;2023-04-29T02:41:26;266.17;;;83.97;;
10633;SDS011;5365;51.640;8.106;2023-04-29T02:44:26;249.37;;;79.03;;
10633;SDS011;5365;51.640;8.106;2023-04-29T02:47:27;253.10;;;77.20;;
10633;SDS011;5365;51.640;8.106;2023-04-29T02:50:27;253.70;;;74.05;;
10633;SDS011;5365;51.640;8.106;2023-04-29T02:53:27;238.50;;;73.73;;
10633;SDS011;5365;51.640;8.106;2023-04-29T02:56:27;255.47;;;83.30;;
10633;SDS011;5365;51.640;8.106;2023-04-29T02:59:28;248.43;;;77.13;;
10633;SDS011;5365;51.640;8.106;2023-04-29T03:02:28;246.13;;;74.90;;
10633;SDS011;5365;51.640;8.106;2023-04-29T03:05:29;245.70;;;74.50;;
10633;SDS011;5365;51.640;8.106;2023-04-29T03:08:29;237.00;;;72.33;;
10633;SDS011;5365;51.640;8.106;2023-04-29T03:11:29;252.10;;;76.43;;
10633;SDS011;5365;51.640;8.106;2023-04-29T03:14:29;233.47;;;74.73;;
10633;SDS011;5365;51.640;8.106;2023-04-29T03:17:29;237.43;;;72.73;;
10633;SDS011;5365;51.640;8.106;2023-04-29T03:20:30;237.50;;;72.03;;
10633;SDS011;5365;51.640;8.106;2023-04-29T03:23:31;243.97;;;69.90;;
10633;SDS011;5365;51.640;8.106;2023-04-29T03:26:32;263.93;;;82.80;;
10633;SDS011;5365;51.640;8.106;2023-04-29T03:29:32;238.20;;;72.17;;
10633;SDS011;5365;51.640;8.106;2023-04-29T03:32:32;235.20;;;72.90;;
10633;SDS011;5365;51.640;8.106;2023-04-29T03:35:32;250.60;;;77.63;;
10633;SDS011;5365;51.640;8.106;2023-04-29T03:38:33;236.03;;;68.20;;
10633;SDS011;5365;51.640;8.106;2023-04-29T03:41:33;233.40;;;72.30;;
10633;SDS011;5365;51.640;8.106;2023-04-29T03:44:33;243.17;;;74.33;;
10633;SDS011;5365;51.640;8.106;2023-04-29T03:47:33;227.77;;;69.20;;
10633;SDS011;5365;51.640;8.106;2023-04-29T03:50:35;236.93;;;70.80;;
10633;SDS011;5365;51.640;8.106;2023-04-29T03:53:35;231.47;;;69.20;;
10633;SDS011;5365;51.640;8.106;2023-04-29T03:56:36;221.43;;;66.63;;
10633;SDS011;5365;51.640;8.106;2023-04-29T03:59:36;227.50;;;67.90;;
10633;SDS011;5365;51.640;8.106;2023-04-29T04:02:37;224.93;;;68.97;;
10633;SDS011;5365;51.640;8.106;2023-04-29T04:05:37;225.20;;;70.40;;
10633;SDS011;5365;51.640;8.106;2023-04-29T04:08:37;221.10;;;65.97;;
10633;SDS011;5365;51.640;8.106;2023-04-29T04:11:37;239.50;;;71.70;;
10633;SDS011;5365;51.640;8.106;2023-04-29T04:14:37;232.93;;;70.50;;
10633;SDS011;5365;51.640;8.106;2023-04-29T04:17:38;220.48;;;68.97;;
10633;SDS011;5365;51.640;8.106;2023-04-29T04:20:38;224.80;;;67.87;;
10633;SDS011;5365;51.640;8.106;2023-04-29T04:23:38;228.67;;;69.47;;
10633;SDS011;5365;51.640;8.106;2023-04-29T04:26:40;217.13;;;66.37;;
10633;SDS011;5365;51.640;8.106;2023-04-29T04:29:41;236.23;;;72.67;;
10633;SDS011;5365;51.640;8.106;2023-04-29T04:32:41;230.90;;;70.57;;
10633;SDS011;5365;51.640;8.106;2023-04-29T04:35:41;227.97;;;67.50;;
10633;SDS011;5365;51.640;8.106;2023-04-29T04:38:42;226.87;;;67.63;;
10633;SDS011;5365;51.640;8.106;2023-04-29T04:41:42;222.07;;;67.90;;
10633;SDS011;5365;51.640;8.106;2023-04-29T04:44:42;233.00;;;71.30;;
10633;SDS011;5365;51.640;8.106;2023-04-29T04:47:42;217.37;;;67.33;;
10633;SDS011;5365;51.640;8.106;2023-04-29T04:50:42;234.37;;;70.70;;
10633;SDS011;5365;51.640;8.106;2023-04-29T04:53:43;227.63;;;70.30;;
10633;SDS011;5365;51.640;8.106;2023-04-29T04:56:43;230.27;;;69.93;;
10633;SDS011;5365;51.640;8.106;2023-04-29T04:59:43;235.73;;;69.03;;
10633;SDS011;5365;51.640;8.106;2023-04-29T05:02:43;227.90;;;70.20;;
10633;SDS011;5365;51.640;8.106;2023-04-29T05:05:43;237.33;;;69.67;;
10633;SDS011;5365;51.640;8.106;2023-04-29T05:08:44;227.02;;;70.60;;
10633;SDS011;5365;51.640;8.106;2023-04-29T05:11:44;224.70;;;67.03;;
10633;SDS011;5365;51.640;8.106;2023-04-29T05:14:45;216.10;;;63.30;;
10633;SDS011;5365;51.640;8.106;2023-04-29T05:17:45;222.23;;;68.33;;
10633;SDS011;5365;51.640;8.106;2023-04-29T05:20:45;228.83;;;68.67;;
10633;SDS011;5365;51.640;8.106;2023-04-29T05:23:46;219.43;;;65.10;;
10633;SDS011;5365;51.640;8.106;2023-04-29T05:26:46;228.70;;;68.23;;
10633;SDS011;5365;51.640;8.106;2023-04-29T05:29:46;226.00;;;69.57;;
10633;SDS011;5365;51.640;8.106;2023-04-29T05:32:46;219.70;;;65.63;;
10633;SDS011;5365;51.640;8.106;2023-04-29T05:35:47;225.23;;;70.60;;
10633;SDS011;5365;51.640;8.106;2023-04-29T05:38:47;227.67;;;67.73;;
10633;SDS011;5365;51.640;8.106;2023-04-29T05:41:48;223.73;;;68.30;;
10633;SDS011;5365;51.640;8.106;2023-04-29T05:44:48;237.20;;;72.13;;
10633;SDS011;5365;51.640;8.106;2023-04-29T05:47:48;220.87;;;64.90;;
10633;SDS011;5365;51.640;8.106;2023-04-29T05:50:49;222.17;;;67.50;;
10633;SDS011;5365;51.640;8.106;2023-04-29T05:53:50;233.10;;;71.53;;
10633;SDS011;5365;51.640;8.106;2023-04-29T05:56:50;222.67;;;67.63;;
10633;SDS011;5365;51.640;8.106;2023-04-29T05:59:50;228.63;;;69.37;;
10633;SDS011;5365;51.640;8.106;2023-04-29T06:02:54;215.50;;;64.70;;
10633;SDS011;5365;51.640;8.106;2023-04-29T06:05:54;219.73;;;65.63;;
10633;SDS011;5365;51.640;8.106;2023-04-29T06:08:54;220.27;;;70.13;;
10633;SDS011;5365;51.640;8.106;2023-04-29T06:11:55;225.17;;;69.20;;
10633;SDS011;5365;51.640;8.106;2023-04-29T06:14:55;225.23;;;69.07;;
10633;SDS011;5365;51.640;8.106;2023-04-29T06:17:56;219.00;;;69.03;;
10633;SDS011;5365;51.640;8.106;2023-04-29T06:20:56;232.83;;;70.30;;
10633;SDS011;5365;51.640;8.106;2023-04-29T06:23:56;223.07;;;66.57;;
10633;SDS011;5365;51.640;8.106;2023-04-29T06:26:57;212.30;;;63.03;;
10633;SDS011;5365;51.640;8.106;2023-04-29T06:29:57;216.63;;;60.67;;
10633;SDS011;5365;51.640;8.106;2023-04-29T06:32:57;212.03;;;61.97;;
10633;SDS011;5365;51.640;8.106;2023-04-29T06:35:58;217.93;;;65.13;;
10633;SDS011;5365;51.640;8.106;2023-04-29T06:38:58;219.83;;;65.20;;
10633;SDS011;5365;51.640;8.106;2023-04-29T06:41:58;214.43;;;63.97;;
10633;SDS011;5365;51.640;8.106;2023-04-29T06:44:58;222.03;;;68.17;;
10633;SDS011;5365;51.640;8.106;2023-04-29T06:47:58;212.73;;;65.13;;
10633;SDS011;5365;51.640;8.106;2023-04-29T06:50:59;218.10;;;66.33;;
10633;SDS011;5365;51.640;8.106;2023-04-29T06:53:59;214.17;;;62.90;;
10633;SDS011;5365;51.640;8.106;2023-04-29T06:57:00;210.37;;;61.90;;
10633;SDS011;5365;51.640;8.106;2023-04-29T07:00:01;218.07;;;66.17;;
10633;SDS011;5365;51.640;8.106;2023-04-29T07:03:01;213.33;;;63.63;;
10633;SDS011;5365;51.640;8.106;2023-04-29T07:06:01;212.63;;;62.70;;
10633;SDS011;5365;51.640;8.106;2023-04-29T07:09:02;209.13;;;61.50;;
10633;SDS011;5365;51.640;8.106;2023-04-29T07:12:02;217.53;;;62.13;;
10633;SDS011;5365;51.640;8.106;2023-04-29T07:15:03;209.87;;;61.90;;
10633;SDS011;5365;51.640;8.106;2023-04-29T07:18:04;209.47;;;60.97;;
10633;SDS011;5365;51.640;8.106;2023-04-29T07:21:04;210.23;;;63.27;;
10633;SDS011;5365;51.640;8.106;2023-04-29T07:24:05;217.67;;;64.60;;
10633;SDS011;5365;51.640;8.106;2023-04-29T07:27:05;211.63;;;62.70;;
10633;SDS011;5365;51.640;8.106;2023-04-29T07:30:06;206.53;;;60.73;;
10633;SDS011;5365;51.640;8.106;2023-04-29T07:33:06;209.80;;;61.20;;
10633;SDS011;5365;51.640;8.106;2023-04-29T07:36:06;204.40;;;59.93;;
10633;SDS011;5365;51.640;8.106;2023-04-29T07:39:06;206.77;;;61.60;;
10633;SDS011;5365;51.640;8.106;2023-04-29T07:42:07;212.17;;;62.53;;
10633;SDS011;5365;51.640;8.106;2023-04-29T07:45:07;219.73;;;66.97;;
10633;SDS011;5365;51.640;8.106;2023-04-29T07:48:07;212.30;;;64.03;;
10633;SDS011;5365;51.640;8.106;2023-04-29T07:51:11;229.27;;;70.03;;
10633;SDS011;5365;51.640;8.106;2023-04-29T07:54:12;209.97;;;63.47;;
10633;SDS011;5365;51.640;8.106;2023-04-29T07:57:12;216.32;;;65.28;;
10633;SDS011;5365;51.640;8.106;2023-04-29T08:00:12;218.50;;;65.10;;
10633;SDS011;5365;51.640;8.106;2023-04-29T08:03:13;216.40;;;66.83;;
10633;SDS011;5365;51.640;8.106;2023-04-29T08:06:13;215.70;;;68.37;;
10633;SDS011;5365;51.640;8.106;2023-04-29T08:09:13;218.90;;;67.43;;
10633;SDS011;5365;51.640;8.106;2023-04-29T08:12:13;214.93;;;67.00;;
10633;SDS011;5365;51.640;8.106;2023-04-29T08:15:14;216.77;;;67.33;;
10633;SDS011;5365;51.640;8.106;2023-04-29T08:18:14;218.90;;;68.87;;
10633;SDS011;5365;51.640;8.106;2023-04-29T08:21:15;221.83;;;70.67;;
10633;SDS011;5365;51.640;8.106;2023-04-29T08:24:15;217.40;;;69.90;;
10633;SDS011;5365;51.640;8.106;2023-04-29T08:27:16;225.60;;;74.13;;
10633;SDS011;5365;51.640;8.106;2023-04-29T08:30:16;230.80;;;71.17;;
10633;SDS011;5365;51.640;8.106;2023-04-29T08:33:16;224.23;;;71.37;;
10633;SDS011;5365;51.640;8.106;2023-04-29T08:36:16;219.97;;;68.13;;
10633;SDS011;5365;51.640;8.106;2023-04-29T08:39:16;222.70;;;72.67;;
10633;SDS011;5365;51.640;8.106;2023-04-29T08:42:17;220.87;;;69.20;;
10633;SDS011;5365;51.640;8.106;2023-04-29T08:45:19;218.70;;;70.27;;
10633;SDS011;5365;51.640;8.106;2023-04-29T08:48:21;228.63;;;74.07;;
10633;SDS011;5365;51.640;8.106;2023-04-29T08:51:22;217.33;;;70.53;;
10633;SDS011;5365;51.640;8.106;2023-04-29T08:54:22;220.00;;;72.00;;
10633;SDS011;5365;51.640;8.106;2023-04-29T08:57:23;215.10;;;70.63;;
10633;SDS011;5365;51.640;8.106;2023-04-29T09:00:24;223.30;;;73.07;;
10633;SDS011;5365;51.640;8.106;2023-04-29T09:06:29;222.33;;;75.20;;
10633;SDS011;5365;51.640;8.106;2023-04-29T09:09:29;221.43;;;77.60;;
10633;SDS011;5365;51.640;8.106;2023-04-29T09:12:29;217.80;;;73.10;;
10633;SDS011;5365;51.640;8.106;2023-04-29T09:15:34;231.00;;;82.20;;
10633;SDS011;5365;51.640;8.106;2023-04-29T09:18:47;226.30;;;77.70;;
10633;SDS011;5365;51.640;8.106;2023-04-29T09:21:53;214.93;;;77.57;;
10633;SDS011;5365;51.640;8.106;2023-04-29T09:24:53;216.70;;;76.80;;
10633;SDS011;5365;51.640;8.106;2023-04-29T09:27:54;215.80;;;73.40;;
10633;SDS011;5365;51.640;8.106;2023-04-29T09:30:54;219.03;;;80.63;;
10633;SDS011;5365;51.640;8.106;2023-04-29T09:33:56;216.87;;;77.23;;
10633;SDS011;5365;51.640;8.106;2023-04-29T09:36:57;224.07;;;80.77;;
10633;SDS011;5365;51.640;8.106;2023-04-29T09:39:58;220.93;;;76.57;;
10633;SDS011;5365;51.640;8.106;2023-04-29T09:42:59;214.80;;;77.70;;
10633;SDS011;5365;51.640;8.106;2023-04-29T09:45:59;219.47;;;76.47;;
10633;SDS011;5365;51.640;8.106;2023-04-29T09:49:00;214.63;;;72.87;;
10633;SDS011;5365;51.640;8.106;2023-04-29T09:52:01;216.73;;;75.10;;
10633;SDS011;5365;51.640;8.106;2023-04-29T09:55:03;216.90;;;77.50;;
10633;SDS011;5365;51.640;8.106;2023-04-29T09:58:04;211.13;;;72.13;;
10633;SDS011;5365;51.640;8.106;2023-04-29T10:01:05;218.33;;;76.47;;
10633;SDS011;5365;51.640;8.106;2023-04-29T10:04:05;215.40;;;77.13;;
10633;SDS011;5365;51.640;8.106;2023-04-29T10:07:08;213.83;;;77.10;;
10633;SDS011;5365;51.640;8.106;2023-04-29T10:10:08;217.90;;;80.80;;
10633;SDS011;5365;51.640;8.106;2023-04-29T10:13:10;216.97;;;78.77;;
10633;SDS011;5365;51.640;8.106;2023-04-29T10:20:08;213.63;;;79.00;;
10633;SDS011;5365;51.640;8.106;2023-04-29T10:22:50;217.70;;;81.60;;
10633;SDS011;5365;51.640;8.106;2023-04-29T10:25:51;216.53;;;81.93;;
10633;SDS011;5365;51.640;8.106;2023-04-29T10:28:51;218.37;;;78.63;;
10633;SDS011;5365;51.640;8.106;2023-04-29T10:31:54;218.60;;;82.27;;
10633;SDS011;5365;51.640;8.106;2023-04-29T10:34:54;218.80;;;83.23;;
10633;SDS011;5365;51.640;8.106;2023-04-29T10:37:58;217.90;;;80.83;;
10633;SDS011;5365;51.640;8.106;2023-04-29T10:41:00;211.00;;;82.60;;
10633;SDS011;5365;51.640;8.106;2023-04-29T10:44:02;215.23;;;82.37;;
10633;SDS011;5365;51.640;8.106;2023-04-29T10:47:18;208.00;;;78.50;;
10633;SDS011;5365;51.640;8.106;2023-04-29T10:50:19;210.90;;;77.60;;
10633;SDS011;5365;51.640;8.106;2023-04-29T10:53:19;210.67;;;80.73;;
10633;SDS011;5365;51.640;8.106;2023-04-29T10:56:19;215.13;;;83.47;;
10633;SDS011;5365;51.640;8.106;2023-04-29T11:02:27;214.33;;;82.63;;
10633;SDS011;5365;51.640;8.106;2023-04-29T11:08:36;212.37;;;77.47;;
10633;SDS011;5365;51.640;8.106;2023-04-29T11:11:54;213.23;;;85.57;;
10633;SDS011;5365;51.640;8.106;2023-04-29T11:14:57;221.97;;;92.70;;
10633;SDS011;5365;51.640;8.106;2023-04-29T11:18:03;221.17;;;91.73;;
10633;SDS011;5365;51.640;8.106;2023-04-29T11:24:06;229.13;;;95.97;;
10633;SDS011;5365;51.640;8.106;2023-04-29T11:27:07;226.47;;;97.93;;
10633;SDS011;5365;51.640;8.106;2023-04-29T11:30:07;217.77;;;93.33;;
10633;SDS011;5365;51.640;8.106;2023-04-29T11:33:07;213.27;;;88.43;;
10633;SDS011;5365;51.640;8.106;2023-04-29T11:36:11;220.03;;;93.67;;
10633;SDS011;5365;51.640;8.106;2023-04-29T11:39:11;218.90;;;95.33;;
10633;SDS011;5365;51.640;8.106;2023-04-29T11:42:12;212.83;;;88.87;;
10633;SDS011;5365;51.640;8.106;2023-04-29T11:45:12;218.50;;;90.13;;
10633;SDS011;5365;51.640;8.106;2023-04-29T11:48:19;213.17;;;92.23;;
10633;SDS011;5365;51.640;8.106;2023-04-29T11:51:20;219.87;;;93.33;;
10633;SDS011;5365;51.640;8.106;2023-04-29T11:54:21;217.90;;;89.07;;
10633;SDS011;5365;51.640;8.106;2023-04-29T11:57:24;218.93;;;88.67;;
10633;SDS011;5365;51.640;8.106;2023-04-29T12:00:24;213.33;;;82.70;;
10633;SDS011;5365;51.640;8.106;2023-04-29T12:03:24;215.53;;;83.70;;
10633;SDS011;5365;51.640;8.106;2023-04-29T12:06:28;213.40;;;84.60;;
10633;SDS011;5365;51.640;8.106;2023-04-29T12:09:38;215.83;;;90.80;;
10633;SDS011;5365;51.640;8.106;2023-04-29T12:12:40;214.00;;;86.37;;
10633;SDS011;5365;51.640;8.106;2023-04-29T12:15:43;219.57;;;88.73;;
10633;SDS011;5365;51.640;8.106;2023-04-29T12:18:43;216.93;;;87.07;;
10633;SDS011;5365;51.640;8.106;2023-04-29T12:21:47;214.20;;;81.07;;
10633;SDS011;5365;51.640;8.106;2023-04-29T12:24:48;211.30;;;84.17;;
10633;SDS011;5365;51.640;8.106;2023-04-29T12:27:51;215.73;;;87.20;;
10633;SDS011;5365;51.640;8.106;2023-04-29T12:30:58;213.37;;;86.23;;
10633;SDS011;5365;51.640;8.106;2023-04-29T12:33:58;216.60;;;82.80;;
10633;SDS011;5365;51.640;8.106;2023-04-29T12:36:58;218.27;;;83.90;;
10633;SDS011;5365;51.640;8.106;2023-04-29T12:39:59;215.60;;;86.23;;
10633;SDS011;5365;51.640;8.106;2023-04-29T12:43:05;215.43;;;85.97;;
10633;SDS011;5365;51.640;8.106;2023-04-29T12:46:06;213.93;;;81.83;;
10633;SDS011;5365;51.640;8.106;2023-04-29T12:49:09;211.03;;;80.53;;
10633;SDS011;5365;51.640;8.106;2023-04-29T12:52:10;212.80;;;83.70;;
10633;SDS011;5365;51.640;8.106;2023-04-29T12:55:10;213.53;;;78.23;;
10633;SDS011;5365;51.640;8.106;2023-04-29T12:58:11;215.67;;;79.23;;
10633;SDS011;5365;51.640;8.106;2023-04-29T13:01:11;212.23;;;82.13;;
10633;SDS011;5365;51.640;8.106;2023-04-29T13:04:11;212.90;;;82.07;;
10633;SDS011;5365;51.640;8.106;2023-04-29T13:07:11;217.70;;;80.37;;
10633;SDS011;5365;51.640;8.106;2023-04-29T13:10:12;213.87;;;82.77;;
10633;SDS011;5365;51.640;8.106;2023-04-29T13:13:12;210.63;;;81.10;;
10633;SDS011;5365;51.640;8.106;2023-04-29T13:16:12;213.00;;;78.80;;
10633;SDS011;5365;51.640;8.106;2023-04-29T13:19:12;212.40;;;83.80;;
10633;SDS011;5365;51.640;8.106;2023-04-29T13:22:13;209.80;;;80.40;;
10633;SDS011;5365;51.640;8.106;2023-04-29T13:25:13;210.77;;;80.87;;
10633;SDS011;5365;51.640;8.106;2023-04-29T13:28:15;213.73;;;82.53;;
10633;SDS011;5365;51.640;8.106;2023-04-29T13:31:15;210.43;;;85.60;;
10633;SDS011;5365;51.640;8.106;2023-04-29T13:34:15;210.00;;;83.07;;
10633;SDS011;5365;51.640;8.106;2023-04-29T13:37:16;207.87;;;83.80;;
10633;SDS011;5365;51.640;8.106;2023-04-29T13:40:16;215.57;;;90.93;;
10633;SDS011;5365;51.640;8.106;2023-04-29T13:43:16;211.87;;;84.70;;
10633;SDS011;5365;51.640;8.106;2023-04-29T13:46:16;212.03;;;88.63;;
10633;SDS011;5365;51.640;8.106;2023-04-29T13:49:16;214.17;;;88.17;;
10633;SDS011;5365;51.640;8.106;2023-04-29T13:52:17;208.60;;;85.73;;
10633;SDS011;5365;51.640;8.106;2023-04-29T13:55:17;210.87;;;84.53;;
10633;SDS011;5365;51.640;8.106;2023-04-29T13:58:17;208.73;;;83.43;;
10633;SDS011;5365;51.640;8.106;2023-04-29T14:01:17;207.88;;;85.97;;
10633;SDS011;5365;51.640;8.106;2023-04-29T14:04:18;209.87;;;86.37;;
10633;SDS011;5365;51.640;8.106;2023-04-29T14:07:18;209.40;;;82.97;;
10633;SDS011;5365;51.640;8.106;2023-04-29T14:10:18;208.23;;;79.63;;
10633;SDS011;5365;51.640;8.106;2023-04-29T14:13:18;210.33;;;82.30;;
10633;SDS011;5365;51.640;8.106;2023-04-29T14:16:19;203.37;;;75.23;;
10633;SDS011;5365;51.640;8.106;2023-04-29T14:19:19;208.80;;;81.50;;
10633;SDS011;5365;51.640;8.106;2023-04-29T14:22:19;208.50;;;75.63;;
10633;SDS011;5365;51.640;8.106;2023-04-29T14:25:20;211.60;;;81.47;;
10633;SDS011;5365;51.640;8.106;2023-04-29T14:28:20;204.63;;;75.37;;
10633;SDS011;5365;51.640;8.106;2023-04-29T14:31:20;209.07;;;77.83;;
10633;SDS011;5365;51.640;8.106;2023-04-29T14:34:21;204.53;;;75.13;;
10633;SDS011;5365;51.640;8.106;2023-04-29T14:37:21;209.77;;;79.20;;
10633;SDS011;5365;51.640;8.106;2023-04-29T14:40:21;205.53;;;77.33;;
10633;SDS011;5365;51.640;8.106;2023-04-29T14:43:21;204.50;;;77.77;;
10633;SDS011;5365;51.640;8.106;2023-04-29T14:46:22;203.07;;;76.20;;
10633;SDS011;5365;51.640;8.106;2023-04-29T14:49:22;205.30;;;79.40;;
10633;SDS011;5365;51.640;8.106;2023-04-29T14:52:22;204.63;;;76.13;;
10633;SDS011;5365;51.640;8.106;2023-04-29T14:55:22;201.57;;;70.27;;
10633;SDS011;5365;51.640;8.106;2023-04-29T14:58:22;202.67;;;72.20;;
10633;SDS011;5365;51.640;8.106;2023-04-29T15:01:23;200.67;;;72.03;;
10633;SDS011;5365;51.640;8.106;2023-04-29T15:04:23;205.90;;;72.97;;
10633;SDS011;5365;51.640;8.106;2023-04-29T15:07:23;204.97;;;75.13;;
10633;SDS011;5365;51.640;8.106;2023-04-29T15:10:23;201.97;;;73.47;;
10633;SDS011;5365;51.640;8.106;2023-04-29T15:13:24;201.90;;;72.23;;
10633;SDS011;5365;51.640;8.106;2023-04-29T15:16:24;198.07;;;71.87;;
10633;SDS011;5365;51.640;8.106;2023-04-29T15:19:24;202.57;;;80.93;;
10633;SDS011;5365;51.640;8.106;2023-04-29T15:22:25;200.03;;;74.90;;
10633;SDS011;5365;51.640;8.106;2023-04-29T15:25:25;196.47;;;70.83;;
10633;SDS011;5365;51.640;8.106;2023-04-29T15:28:26;196.63;;;72.40;;
10633;SDS011;5365;51.640;8.106;2023-04-29T15:31:26;200.73;;;74.70;;
10633;SDS011;5365;51.640;8.106;2023-04-29T15:34:26;199.30;;;76.53;;
10633;SDS011;5365;51.640;8.106;2023-04-29T15:37:27;203.33;;;79.47;;
10633;SDS011;5365;51.640;8.106;2023-04-29T15:40:27;201.33;;;78.90;;
10633;SDS011;5365;51.640;8.106;2023-04-29T15:43:28;201.40;;;80.90;;
10633;SDS011;5365;51.640;8.106;2023-04-29T15:46:29;200.17;;;78.97;;
10633;SDS011;5365;51.640;8.106;2023-04-29T15:49:30;200.40;;;78.13;;
10633;SDS011;5365;51.640;8.106;2023-04-29T15:52:30;197.50;;;72.70;;
10633;SDS011;5365;51.640;8.106;2023-04-29T15:55:30;201.33;;;79.53;;
10633;SDS011;5365;51.640;8.106;2023-04-29T15:58:30;204.97;;;81.40;;
10633;SDS011;5365;51.640;8.106;2023-04-29T16:01:31;201.83;;;78.50;;
10633;SDS011;5365;51.640;8.106;2023-04-29T16:04:31;199.67;;;75.67;;
10633;SDS011;5365;51.640;8.106;2023-04-29T16:07:31;200.17;;;74.97;;
10633;SDS011;5365;51.640;8.106;2023-04-29T16:10:31;208.70;;;80.83;;
10633;SDS011;5365;51.640;8.106;2023-04-29T16:13:32;205.87;;;82.70;;
10633;SDS011;5365;51.640;8.106;2023-04-29T16:16:32;200.33;;;73.93;;
10633;SDS011;5365;51.640;8.106;2023-04-29T16:19:32;203.33;;;77.67;;
10633;SDS011;5365;51.640;8.106;2023-04-29T16:22:33;203.33;;;80.17;;
10633;SDS011;5365;51.640;8.106;2023-04-29T16:25:33;202.40;;;77.63;;
10633;SDS011;5365;51.640;8.106;2023-04-29T16:28:34;203.47;;;76.90;;
10633;SDS011;5365;51.640;8.106;2023-04-29T16:31:34;205.63;;;77.80;;
10633;SDS011;5365;51.640;8.106;2023-04-29T16:34:34;202.87;;;74.17;;
10633;SDS011;5365;51.640;8.106;2023-04-29T16:37:34;203.17;;;74.87;;
10633;SDS011;5365;51.640;8.106;2023-04-29T16:40:35;202.67;;;74.47;;
10633;SDS011;5365;51.640;8.106;2023-04-29T16:43:35;202.10;;;71.33;;
10633;SDS011;5365;51.640;8.106;2023-04-29T16:46:35;201.43;;;72.73;;
10633;SDS011;5365;51.640;8.106;2023-04-29T16:49:36;203.40;;;73.50;;
10633;SDS011;5365;51.640;8.106;2023-04-29T16:52:36;201.57;;;75.90;;
10633;SDS011;5365;51.640;8.106;2023-04-29T16:55:36;198.03;;;71.27;;
10633;SDS011;5365;51.640;8.106;2023-04-29T16:58:37;201.77;;;73.10;;
10633;SDS011;5365;51.640;8.106;2023-04-29T17:01:37;204.03;;;72.57;;
10633;SDS011;5365;51.640;8.106;2023-04-29T17:04:37;198.87;;;70.97;;
10633;SDS011;5365;51.640;8.106;2023-04-29T17:07:38;200.77;;;74.97;;
10633;SDS011;5365;51.640;8.106;2023-04-29T17:10:38;203.83;;;75.23;;
10633;SDS011;5365;51.640;8.106;2023-04-29T17:13:38;202.77;;;69.97;;
10633;SDS011;5365;51.640;8.106;2023-04-29T17:16:39;203.20;;;70.57;;
10633;SDS011;5365;51.640;8.106;2023-04-29T17:19:39;204.33;;;72.33;;
10633;SDS011;5365;51.640;8.106;2023-04-29T17:22:39;204.20;;;74.20;;
10633;SDS011;5365;51.640;8.106;2023-04-29T17:25:39;199.27;;;71.60;;
10633;SDS011;5365;51.640;8.106;2023-04-29T17:28:40;203.80;;;75.50;;
10633;SDS011;5365;51.640;8.106;2023-04-29T17:31:40;199.70;;;70.33;;
10633;SDS011;5365;51.640;8.106;2023-04-29T17:34:56;203.60;;;73.77;;
10633;SDS011;5365;51.640;8.106;2023-04-29T17:37:57;197.53;;;69.03;;
10633;SDS011;5365;51.640;8.106;2023-04-29T17:40:57;197.43;;;66.50;;
10633;SDS011;5365;51.640;8.106;2023-04-29T17:43:58;199.43;;;69.40;;
10633;SDS011;5365;51.640;8.106;2023-04-29T17:46:58;201.20;;;69.75;;
10633;SDS011;5365;51.640;8.106;2023-04-29T17:49:58;205.30;;;68.17;;
10633;SDS011;5365;51.640;8.106;2023-04-29T17:52:58;196.17;;;65.70;;
10633;SDS011;5365;51.640;8.106;2023-04-29T17:55:58;201.77;;;71.87;;
10633;SDS011;5365;51.640;8.106;2023-04-29T17:58:59;198.63;;;70.23;;
10633;SDS011;5365;51.640;8.106;2023-04-29T18:02:00;200.43;;;69.93;;
10633;SDS011;5365;51.640;8.106;2023-04-29T18:05:01;197.37;;;67.67;;
10633;SDS011;5365;51.640;8.106;2023-04-29T18:08:01;202.13;;;71.20;;